createdAt,value
2019-02-19T00:01:54.508Z,7.01
2019-02-19T00:04:24.785Z,7.03
2019-02-19T00:06:55.429Z,7.09
2019-02-19T00:09:25.678Z,7.13
2019-02-19T00:11:56.017Z,7.18
2019-02-19T00:14:26.398Z,7.24
2019-02-19T00:16:56.733Z,7.26
2019-02-19T00:19:27.110Z,7.34
2019-02-19T00:21:59.094Z,7.25
2019-02-19T00:24:29.413Z,7.19
2019-02-19T00:26:59.851Z,7.07
2019-02-19T00:29:30.208Z,7.07
2019-02-19T00:32:03.927Z,7.00
2019-02-19T00:34:34.588Z,6.88
2019-02-19T00:37:06.696Z,6.82
2019-02-19T00:39:37.057Z,6.75
2019-02-19T00:42:08.906Z,6.65
2019-02-19T00:44:39.202Z,6.52
2019-02-19T00:47:09.671Z,6.38
2019-02-19T00:49:41.438Z,6.26
2019-02-19T00:52:14.193Z,6.20
2019-02-19T00:54:44.843Z,6.25
2019-02-19T00:57:15.167Z,6.29
2019-02-19T00:59:45.684Z,6.32
2019-02-19T01:02:19.201Z,6.44
2019-02-19T01:04:53.673Z,6.51
2019-02-19T01:07:24.008Z,6.58
2019-02-19T01:09:54.479Z,6.63
2019-02-19T01:12:24.770Z,6.71
2019-02-19T01:14:55.045Z,6.71
2019-02-19T01:17:25.356Z,6.69
2019-02-19T01:19:55.667Z,6.77
2019-02-19T01:22:25.981Z,6.78
2019-02-19T01:24:56.307Z,6.79
2019-02-19T01:27:26.613Z,6.86
2019-02-19T01:29:57.281Z,7.00
2019-02-19T01:32:27.584Z,7.12
2019-02-19T01:35:00.258Z,7.18
2019-02-19T01:37:30.515Z,7.18
2019-02-19T01:40:02.178Z,7.35
2019-02-19T01:42:32.592Z,7.66
2019-02-19T01:45:03.216Z,7.88
2019-02-19T01:47:33.883Z,8.01
2019-02-19T01:50:04.708Z,8.15
2019-02-19T01:52:35.052Z,8.22
2019-02-19T01:55:06.095Z,8.25
2019-02-19T01:57:36.677Z,8.28
2019-02-19T02:00:07.909Z,8.27
2019-02-19T02:02:38.540Z,8.28
2019-02-19T02:05:09.128Z,8.27
2019-02-19T02:07:39.537Z,8.27
2019-02-19T02:10:09.861Z,8.21
2019-02-19T02:12:40.756Z,8.08
2019-02-19T02:15:11.151Z,8.05
2019-02-19T02:17:41.785Z,8.05
2019-02-19T02:20:12.057Z,8.09
2019-02-19T02:22:44.479Z,8.12
2019-02-19T02:25:15.370Z,8.16
2019-02-19T02:27:47.393Z,8.17
2019-02-19T02:30:17.701Z,8.19
2019-02-19T02:32:48.383Z,8.17
2019-02-19T02:35:18.702Z,8.17
2019-02-19T02:37:51.380Z,8.16
2019-02-19T02:40:21.779Z,8.15
2019-02-19T02:42:52.860Z,8.14
2019-02-19T02:45:23.723Z,8.17
2019-02-19T02:47:54.032Z,8.16
2019-02-19T02:50:24.581Z,8.15
2019-02-19T02:52:54.941Z,8.15
2019-02-19T02:55:25.341Z,8.15
2019-02-19T02:57:55.651Z,8.12
2019-02-19T03:00:27.160Z,8.10
2019-02-19T03:02:57.696Z,8.05
2019-02-19T03:05:28.318Z,8.00
2019-02-19T03:08:02.837Z,7.95
2019-02-19T03:10:33.152Z,7.90
2019-02-19T03:13:03.425Z,7.83
2019-02-19T03:15:33.732Z,7.76
2019-02-19T03:18:04.321Z,7.71
2019-02-19T03:20:34.631Z,7.67
2019-02-19T03:23:05.018Z,7.63
2019-02-19T03:25:35.607Z,7.57
2019-02-19T03:28:05.862Z,7.53
2019-02-19T03:30:37.110Z,7.50
2019-02-19T03:33:07.714Z,7.45
2019-02-19T03:35:39.893Z,7.39
2019-02-19T03:38:10.254Z,7.29
2019-02-19T03:40:40.554Z,7.21
2019-02-19T03:43:10.835Z,7.13
2019-02-19T03:45:41.141Z,7.08
2019-02-19T03:48:11.533Z,7.02
2019-02-19T03:50:41.812Z,7.00
2019-02-19T03:53:12.166Z,6.97
2019-02-19T03:55:42.557Z,6.97
2019-02-19T03:58:14.200Z,6.98
2019-02-19T04:00:44.847Z,6.97
2019-02-19T04:03:15.162Z,6.97
2019-02-19T04:05:45.838Z,6.97
2019-02-19T04:08:17.278Z,6.96
2019-02-19T04:10:47.769Z,6.96
2019-02-19T04:13:19.695Z,6.94
2019-02-19T04:15:49.999Z,6.97
2019-02-19T04:18:21.909Z,6.97
2019-02-19T04:20:52.212Z,6.96
2019-02-19T04:23:23.842Z,6.97
2019-02-19T04:25:54.329Z,6.94
2019-02-19T04:28:24.655Z,6.95
2019-02-19T04:30:55.000Z,7.00
2019-02-19T04:33:25.296Z,7.02
2019-02-19T04:35:55.916Z,7.04
2019-02-19T04:38:26.214Z,7.04
2019-02-19T04:40:56.845Z,7.03
2019-02-19T04:43:27.122Z,7.06
2019-02-19T04:45:57.738Z,7.06
2019-02-19T04:48:28.060Z,7.04
2019-02-19T04:50:58.754Z,7.05
2019-02-19T04:53:29.238Z,7.06
2019-02-19T04:55:59.732Z,7.07
2019-02-19T04:58:30.032Z,7.16
2019-02-19T05:01:00.361Z,7.24
2019-02-19T05:03:30.926Z,7.25
2019-02-19T05:06:02.536Z,7.22
2019-02-19T05:08:32.855Z,7.29
2019-02-19T05:11:03.224Z,7.29
2019-02-19T05:13:33.774Z,7.35
2019-02-19T05:16:04.147Z,7.33
2019-02-19T05:18:34.736Z,7.29
2019-02-19T05:21:06.237Z,7.32
2019-02-19T05:23:39.181Z,7.34
2019-02-19T05:26:11.806Z,7.33
2019-02-19T05:28:42.773Z,7.28
2019-02-19T05:31:13.155Z,7.29
2019-02-19T05:33:44.010Z,7.25
2019-02-19T05:36:14.596Z,7.18
2019-02-19T05:38:45.249Z,7.15
2019-02-19T05:41:15.655Z,7.15
2019-02-19T05:43:47.579Z,7.19
2019-02-19T05:46:18.061Z,7.19
2019-02-19T05:48:48.548Z,7.15
2019-02-19T05:51:18.840Z,7.12
2019-02-19T05:53:49.282Z,7.11
2019-02-19T05:56:19.772Z,7.10
2019-02-19T05:58:51.301Z,7.09
2019-02-19T06:01:21.693Z,7.05
2019-02-19T06:03:52.060Z,7.06
2019-02-19T06:06:22.648Z,7.06
2019-02-19T06:08:52.978Z,7.04
2019-02-19T06:11:23.316Z,7.03
2019-02-19T06:13:53.604Z,7.01
2019-02-19T06:16:24.616Z,7.02
2019-02-19T06:18:54.951Z,6.99
2019-02-19T06:21:25.823Z,6.93
2019-02-19T06:23:56.126Z,6.93
2019-02-19T06:26:26.702Z,6.93
2019-02-19T06:28:57.885Z,7.01
2019-02-19T06:31:28.722Z,7.03
2019-02-19T06:33:59.131Z,7.01
2019-02-19T06:36:30.050Z,7.03
2019-02-19T06:39:00.389Z,7.06
2019-02-19T06:41:32.620Z,7.07
2019-02-19T06:44:02.960Z,7.04
2019-02-19T06:46:35.180Z,7.02
2019-02-19T06:49:05.624Z,7.05
2019-02-19T06:51:37.317Z,7.08
2019-02-19T06:54:07.908Z,7.07
2019-02-19T06:56:39.058Z,7.08
2019-02-19T06:59:09.752Z,7.09
2019-02-19T07:02:19.762Z,7.14
2019-02-19T07:04:56.617Z,7.17
2019-02-19T07:07:27.082Z,7.21
2019-02-19T07:09:58.723Z,7.19
2019-02-19T07:12:29.049Z,7.19
2019-02-19T07:14:59.668Z,7.20
2019-02-19T07:17:29.985Z,7.19
2019-02-19T07:20:00.718Z,7.17
2019-02-19T07:22:31.305Z,7.18
2019-02-19T07:25:01.594Z,7.21
2019-02-19T07:27:32.100Z,7.23
2019-02-19T07:30:02.686Z,7.19
2019-02-19T07:32:33.125Z,7.18
2019-02-19T07:35:03.629Z,7.18
2019-02-19T07:37:33.974Z,7.19
2019-02-19T07:40:04.386Z,7.22
2019-02-19T07:42:35.073Z,7.30
2019-02-19T07:45:05.859Z,7.34
2019-02-19T07:47:36.252Z,7.33
2019-02-19T07:50:07.393Z,7.27
2019-02-19T07:52:39.015Z,7.21
2019-02-19T07:55:09.826Z,7.11
2019-02-19T07:57:42.897Z,7.04
2019-02-19T08:00:13.569Z,6.93
2019-02-19T08:02:44.135Z,6.83
2019-02-19T08:05:14.448Z,6.76
2019-02-19T08:07:45.180Z,6.73
2019-02-19T08:10:15.860Z,6.72
2019-02-19T08:12:47.971Z,6.72
2019-02-19T08:15:18.286Z,6.72
2019-02-19T08:17:49.293Z,6.84
2019-02-19T08:20:19.595Z,7.02
2019-02-19T08:22:52.765Z,7.31
2019-02-19T08:25:24.449Z,7.68
2019-02-19T08:27:55.105Z,8.05
2019-02-19T08:30:25.689Z,8.39
2019-02-19T08:32:55.971Z,8.65
2019-02-19T08:35:26.663Z,9.96
2019-02-19T08:37:56.976Z,11.88
2019-02-19T08:40:27.301Z,11.77
2019-02-19T08:42:57.607Z,12.43
2019-02-19T08:45:30.156Z,11.85
2019-02-19T08:48:00.525Z,11.85
2019-02-19T08:50:31.802Z,13.44
2019-02-19T08:53:02.194Z,12.89
2019-02-19T08:55:34.819Z,12.40
2019-02-19T08:58:05.200Z,13.47
2019-02-19T09:00:36.077Z,14.71
2019-02-19T09:03:06.376Z,15.49
2019-02-19T09:05:36.863Z,16.00
2019-02-19T09:08:07.377Z,15.00
2019-02-19T09:10:39.896Z,14.35
2019-02-19T09:13:10.619Z,14.50
2019-02-19T09:15:41.133Z,13.72
2019-02-19T09:18:11.689Z,13.72
2019-02-19T09:20:42.160Z,14.36
2019-02-19T09:23:12.791Z,14.45
2019-02-19T09:25:44.648Z,13.90
2019-02-19T09:28:15.020Z,14.45
2019-02-19T09:30:45.374Z,15.12
2019-02-19T09:33:16.065Z,14.05
2019-02-19T09:35:46.460Z,14.21
2019-02-19T09:38:16.855Z,14.74
2019-02-19T09:40:47.190Z,14.74
2019-02-19T09:43:17.971Z,15.14
2019-02-19T09:45:48.700Z,15.07
2019-02-19T09:48:19.035Z,18.48
2019-02-19T09:50:49.504Z,20.03
2019-02-19T09:53:20.144Z,18.57
2019-02-19T09:55:50.496Z,18.57
2019-02-19T09:58:21.096Z,18.01
2019-02-19T10:00:51.551Z,19.68
2019-02-19T10:03:22.368Z,19.16
2019-02-19T10:05:52.821Z,20.33
2019-02-19T10:08:26.216Z,19.32
2019-02-19T10:10:56.885Z,18.46
2019-02-19T10:13:27.247Z,20.32
2019-02-19T10:15:57.614Z,23.81
2019-02-19T10:18:28.114Z,25.75
2019-02-19T10:20:59.724Z,25.89
2019-02-19T10:23:30.441Z,23.82
2019-02-19T10:26:01.026Z,23.73
2019-02-19T10:28:31.662Z,21.31
2019-02-19T10:31:02.173Z,22.73
2019-02-19T10:33:32.528Z,24.80
2019-02-19T10:36:03.201Z,22.87
2019-02-19T10:38:33.569Z,19.20
2019-02-19T10:41:04.188Z,16.10
2019-02-19T10:43:36.818Z,14.23
2019-02-19T10:46:07.427Z,13.21
2019-02-19T10:48:37.860Z,12.66
2019-02-19T10:51:08.475Z,12.67
2019-02-19T10:53:39.132Z,12.69
2019-02-19T10:56:09.952Z,12.91
2019-02-19T10:58:40.305Z,13.08
2019-02-19T11:01:11.696Z,12.69
2019-02-19T11:03:42.034Z,12.86
2019-02-19T11:06:12.948Z,13.01
2019-02-19T11:08:43.684Z,12.78
2019-02-19T11:11:14.085Z,12.39
2019-02-19T11:13:47.592Z,12.21
2019-02-19T11:16:18.120Z,12.21
2019-02-19T11:18:48.827Z,12.22
2019-02-19T11:21:20.211Z,12.21
2019-02-19T11:23:51.068Z,12.29
2019-02-19T11:26:21.379Z,12.48
2019-02-19T11:28:51.946Z,12.69
2019-02-19T11:31:22.508Z,12.86
2019-02-19T11:33:53.152Z,13.00
2019-02-19T11:36:23.497Z,12.79
2019-02-19T11:38:55.256Z,12.87
2019-02-19T11:41:25.575Z,12.74
2019-02-19T11:43:56.150Z,12.59
2019-02-19T11:46:26.791Z,12.49
2019-02-19T11:48:58.887Z,12.31
2019-02-19T11:51:29.211Z,12.36
2019-02-19T11:53:59.610Z,12.42
2019-02-19T11:56:30.219Z,12.36
2019-02-19T11:59:01.768Z,12.48
2019-02-19T12:01:32.304Z,12.62
2019-02-19T12:04:03.049Z,12.76
2019-02-19T12:06:33.929Z,12.81
2019-02-19T12:09:05.424Z,12.64
2019-02-19T12:11:35.686Z,12.66
2019-02-19T12:14:06.189Z,13.00
2019-02-19T12:16:36.473Z,13.14
2019-02-19T12:19:06.958Z,13.31
2019-02-19T12:21:37.251Z,13.12
2019-02-19T12:24:07.592Z,12.86
2019-02-19T12:26:37.946Z,13.06
2019-02-19T12:29:10.724Z,12.96
2019-02-19T12:31:41.129Z,12.83
2019-02-19T12:34:11.610Z,12.72
2019-02-19T12:36:42.496Z,12.73
2019-02-19T12:39:12.901Z,12.60
2019-02-19T12:41:43.203Z,12.44
2019-02-19T12:44:13.784Z,12.38
2019-02-19T12:46:44.161Z,12.29
2019-02-19T12:49:16.523Z,12.44
2019-02-19T12:51:47.150Z,12.44
2019-02-19T12:54:17.647Z,12.99
2019-02-19T12:56:48.745Z,13.23
2019-02-19T12:59:19.353Z,13.23
2019-02-19T13:01:49.912Z,13.15
2019-02-19T13:04:20.237Z,13.11
2019-02-19T13:06:50.756Z,12.93
2019-02-19T13:09:21.092Z,12.93
2019-02-19T13:11:51.706Z,13.09
2019-02-19T13:14:22.338Z,13.18
2019-02-19T13:16:52.724Z,13.17
2019-02-19T13:19:23.295Z,13.00
2019-02-19T13:21:55.066Z,12.83
2019-02-19T13:24:26.408Z,12.78
2019-02-19T13:26:56.975Z,12.66
2019-02-19T13:29:27.307Z,12.80
2019-02-19T13:31:58.286Z,12.86
2019-02-19T13:34:30.687Z,12.81
2019-02-19T13:37:01.049Z,12.67
2019-02-19T13:39:32.995Z,12.48
2019-02-19T13:42:03.351Z,12.42
2019-02-19T13:44:33.686Z,12.62
2019-02-19T13:47:05.838Z,12.94
2019-02-19T13:49:39.066Z,13.00
2019-02-19T13:52:32.735Z,12.94
2019-02-19T13:55:07.743Z,12.69
2019-02-19T13:57:38.406Z,12.61
2019-02-19T14:00:10.937Z,12.64
2019-02-19T14:02:42.985Z,12.65
2019-02-19T14:05:13.302Z,12.58
2019-02-19T14:07:45.228Z,12.63
2019-02-19T14:10:15.860Z,12.52
2019-02-19T14:12:46.404Z,12.52
2019-02-19T14:15:43.499Z,12.55
2019-02-19T14:18:16.163Z,12.50
2019-02-19T14:21:08.331Z,12.39
2019-02-19T14:23:59.865Z,12.29
2019-02-19T14:27:01.346Z,12.06
2019-02-19T14:29:49.603Z,11.92
2019-02-19T14:32:32.557Z,11.96
2019-02-19T14:35:37.251Z,12.05
2019-02-19T14:38:28.488Z,12.23
2019-02-19T14:41:25.536Z,12.64
2019-02-19T14:44:14.793Z,12.67
2019-02-19T14:47:02.820Z,12.66
2019-02-19T14:50:10.973Z,12.55
2019-02-19T14:53:00.435Z,12.32
2019-02-19T14:55:59.029Z,11.99
2019-02-19T14:59:06.775Z,11.66
2019-02-19T15:02:01.308Z,11.54
2019-02-19T15:04:54.082Z,11.49
2019-02-19T15:07:43.341Z,11.45
2019-02-19T15:10:28.875Z,11.44
2019-02-19T15:13:15.215Z,11.41
2019-02-19T15:15:57.145Z,11.30
2019-02-19T15:18:49.312Z,11.35
2019-02-19T15:21:37.256Z,11.38
2019-02-19T15:24:32.778Z,11.07
2019-02-19T15:27:12.896Z,10.77
2019-02-19T15:30:01.039Z,10.61
2019-02-19T15:32:42.207Z,10.63
2019-02-19T15:35:25.038Z,10.67
2019-02-19T15:38:03.893Z,10.77
2019-02-19T15:41:11.506Z,10.87
2019-02-19T15:43:50.097Z,10.91
2019-02-19T15:46:39.435Z,10.87
2019-02-19T15:49:48.091Z,10.81
2019-02-19T15:52:33.531Z,10.83
2019-02-19T15:55:23.046Z,10.93
2019-02-19T15:58:11.502Z,10.95
2019-02-19T16:00:46.979Z,10.82
2019-02-19T16:03:34.654Z,10.54
2019-02-19T16:06:26.750Z,10.54
2019-02-19T16:09:15.292Z,10.46
2019-02-19T16:12:04.833Z,10.38
2019-02-19T16:15:09.635Z,10.26
2019-02-19T16:18:05.568Z,10.14
2019-02-19T16:20:46.045Z,10.05
2019-02-19T16:23:38.219Z,9.88
2019-02-19T16:26:27.815Z,9.73
2019-02-19T16:29:15.971Z,9.71
2019-02-19T16:32:15.819Z,9.71
2019-02-19T16:35:08.318Z,9.58
2019-02-19T16:37:46.423Z,9.49
2019-02-19T16:40:35.464Z,9.51
2019-02-19T16:43:34.143Z,9.55
2019-02-19T16:46:30.909Z,9.50
2019-02-19T16:49:29.550Z,9.23
2019-02-19T16:52:24.947Z,9.00
2019-02-19T16:55:29.908Z,8.90
2019-02-19T16:58:21.067Z,8.78
2019-02-19T17:01:00.172Z,8.70
2019-02-19T17:03:48.925Z,8.68
2019-02-19T17:06:40.573Z,8.70
2019-02-19T17:09:30.615Z,8.79
2019-02-19T17:12:29.367Z,8.82
2019-02-19T17:15:15.699Z,8.86
2019-02-19T17:18:14.767Z,8.89
2019-02-19T17:21:02.832Z,8.82
2019-02-19T17:23:43.740Z,8.55
2019-02-19T17:26:18.643Z,8.30
2019-02-19T17:28:57.017Z,8.16
2019-02-19T17:31:36.770Z,8.02
2019-02-19T17:34:30.202Z,7.97
2019-02-19T17:37:19.513Z,7.97
2019-02-19T17:39:59.223Z,8.05
2019-02-19T17:43:06.770Z,8.18
2019-02-19T17:45:59.080Z,8.22
2019-02-19T17:48:48.735Z,8.12
2019-02-19T17:51:41.356Z,8.02
2019-02-19T17:54:27.940Z,7.97
2019-02-19T17:57:17.482Z,7.88
2019-02-19T18:00:05.841Z,7.96
2019-02-19T18:02:48.442Z,7.96
2019-02-19T18:05:49.762Z,7.81
2019-02-19T18:08:42.437Z,7.60
2019-02-19T18:11:34.008Z,7.37
2019-02-19T18:14:20.939Z,7.37
2019-02-19T18:17:07.079Z,7.36
2019-02-19T18:19:37.885Z,7.42
2019-02-19T18:22:08.279Z,7.42
2019-02-19T18:24:39.019Z,7.37
2019-02-19T18:27:09.491Z,7.33
2019-02-19T18:29:40.174Z,7.26
2019-02-19T18:32:10.750Z,7.28
2019-02-19T18:34:41.134Z,7.26
2019-02-19T18:37:11.722Z,7.25
2019-02-19T18:39:42.409Z,7.25
2019-02-19T18:42:14.160Z,7.21
2019-02-19T18:44:48.971Z,7.27
2019-02-19T18:47:19.378Z,7.23
2019-02-19T18:49:51.427Z,7.27
2019-02-19T18:52:22.076Z,7.32
2019-02-19T18:54:54.047Z,7.31
2019-02-19T18:57:26.133Z,7.31
2019-02-19T18:59:56.994Z,7.32
2019-02-19T19:02:27.425Z,7.33
2019-02-19T19:04:57.931Z,7.26
2019-02-19T19:07:28.343Z,7.23
2019-02-19T19:09:59.022Z,7.24
2019-02-19T19:12:29.422Z,7.23
2019-02-19T19:14:59.992Z,7.32
2019-02-19T19:17:30.497Z,7.33
2019-02-19T19:20:01.224Z,7.43
2019-02-19T19:22:31.973Z,7.48
2019-02-19T19:25:02.664Z,7.49
2019-02-19T19:27:33.434Z,7.50
2019-02-19T19:30:03.873Z,7.47
2019-02-19T19:32:34.680Z,7.46
2019-02-19T19:35:05.319Z,7.48
2019-02-19T19:37:37.633Z,7.42
2019-02-19T19:40:09.131Z,7.40
2019-02-19T19:42:39.772Z,7.36
2019-02-19T19:45:10.524Z,7.29
2019-02-19T19:47:41.242Z,7.23
2019-02-19T19:50:11.733Z,7.18
2019-02-19T19:52:42.143Z,7.19
2019-02-19T19:55:12.677Z,7.24
2019-02-19T19:57:45.119Z,7.26
2019-02-19T20:00:15.603Z,7.26
2019-02-19T20:02:46.288Z,7.29
2019-02-19T20:05:16.618Z,7.36
2019-02-19T20:07:47.041Z,7.31
2019-02-19T20:10:17.741Z,7.25
2019-02-19T20:12:48.205Z,7.25
2019-02-19T20:15:28.308Z,7.20
2019-02-19T20:17:59.349Z,7.18
2019-02-19T20:20:31.897Z,7.13
2019-02-19T20:23:04.351Z,7.05
2019-02-19T20:25:34.732Z,7.00
2019-02-19T20:28:05.095Z,6.94
2019-02-19T20:30:35.658Z,6.94
2019-02-19T20:33:06.349Z,7.00
2019-02-19T20:35:36.688Z,6.95
2019-02-19T20:38:06.998Z,6.91
2019-02-19T20:40:37.671Z,6.92
2019-02-19T20:43:08.123Z,6.82
2019-02-19T20:45:38.886Z,6.82
2019-02-19T20:48:09.293Z,6.84
2019-02-19T20:50:40.375Z,6.79
2019-02-19T20:53:10.975Z,6.70
2019-02-19T20:55:43.508Z,6.67
2019-02-19T20:58:13.917Z,6.66
2019-02-19T21:00:45.985Z,6.61
2019-02-19T21:03:16.386Z,6.64
2019-02-19T21:05:48.932Z,6.73
2019-02-19T21:08:19.425Z,6.73
2019-02-19T21:10:50.995Z,6.69
2019-02-19T21:13:21.601Z,6.73
2019-02-19T21:15:54.430Z,6.73
2019-02-19T21:18:24.876Z,6.76
2019-02-19T21:20:56.601Z,6.76
2019-02-19T21:23:27.194Z,6.81
2019-02-19T21:25:57.867Z,6.78
2019-02-19T21:28:28.616Z,6.79
2019-02-19T21:31:00.877Z,6.79
2019-02-19T21:33:31.291Z,6.87
2019-02-19T21:36:01.754Z,6.93
2019-02-19T21:38:32.561Z,6.94
2019-02-19T21:41:02.994Z,6.73
2019-02-19T21:43:33.691Z,6.45
2019-02-19T21:46:04.046Z,6.21
2019-02-19T21:48:35.023Z,6.00
2019-02-19T21:51:05.613Z,5.94
2019-02-19T21:53:36.366Z,5.65
2019-02-19T21:56:06.713Z,5.65
2019-02-19T22:01:13.681Z,5.48
2019-02-19T22:03:44.029Z,5.45
2019-02-19T22:06:14.415Z,5.43
2019-02-19T22:08:45.353Z,5.34
2019-02-19T22:11:16.257Z,5.19
2019-02-19T22:13:48.775Z,5.13
2019-02-19T22:16:27.422Z,5.03
2019-02-19T22:19:00.327Z,4.95
2019-02-19T22:21:47.377Z,4.84
2019-02-19T22:24:54.750Z,4.84
2019-02-19T22:27:26.055Z,5.01
2019-02-19T22:29:56.557Z,5.07
2019-02-19T22:32:27.537Z,5.08
2019-02-19T22:34:59.762Z,5.00
2019-02-19T22:37:30.167Z,5.02
2019-02-19T22:40:00.645Z,4.94
2019-02-19T22:42:32.789Z,4.80
2019-02-19T22:45:03.481Z,4.70
2019-02-19T22:47:34.167Z,4.63
2019-02-19T22:50:08.295Z,4.53
2019-02-19T22:52:38.918Z,4.53
2019-02-19T22:55:21.663Z,4.64
2019-02-19T22:57:52.298Z,4.68
2019-02-19T23:00:44.365Z,4.67
2019-02-19T23:03:17.758Z,4.65
2019-02-19T23:05:48.254Z,4.63
2019-02-19T23:08:18.662Z,4.72
2019-02-19T23:10:49.431Z,4.64
2019-02-19T23:13:21.386Z,4.64
2019-02-19T23:15:52.350Z,4.63
2019-02-19T23:18:22.808Z,4.63
2019-02-19T23:21:02.342Z,4.56
2019-02-19T23:23:34.297Z,4.53
2019-02-19T23:26:04.701Z,4.58
2019-02-19T23:28:35.238Z,4.58
2019-02-19T23:31:07.539Z,4.61
2019-02-19T23:33:39.806Z,4.65
2019-02-19T23:36:38.664Z,4.72
2019-02-19T23:39:12.136Z,4.76
2019-02-19T23:41:42.978Z,4.72
2019-02-19T23:44:18.659Z,4.71
2019-02-19T23:46:51.451Z,4.65
2019-02-19T23:49:22.307Z,4.66
2019-02-19T23:52:01.358Z,4.59
2019-02-19T23:54:34.203Z,4.49
2019-02-19T23:57:04.578Z,4.37
2019-02-19T23:59:37.917Z,4.33
